sensor_id;sensor_type;location;lat;lon;timestamp;P1;durP1;ratioP1;P2;durP2;ratioP2
81648;SDS011;71057;51.436;6.768;2024-03-08T00:02:11;16.58;;;10.68;;
81648;SDS011;71057;51.436;6.768;2024-03-08T00:04:38;17.20;;;11.40;;
81648;SDS011;71057;51.436;6.768;2024-03-08T00:07:03;18.50;;;11.45;;
81648;SDS011;71057;51.436;6.768;2024-03-08T00:09:28;18.33;;;11.68;;
81648;SDS011;71057;51.436;6.768;2024-03-08T00:11:55;18.45;;;10.98;;
81648;SDS011;71057;51.436;6.768;2024-03-08T00:14:21;18.42;;;11.82;;
81648;SDS011;71057;51.436;6.768;2024-03-08T00:16:46;17.23;;;11.13;;
81648;SDS011;71057;51.436;6.768;2024-03-08T00:19:12;16.70;;;11.35;;
81648;SDS011;71057;51.436;6.768;2024-03-08T00:21:37;17.65;;;11.63;;
81648;SDS011;71057;51.436;6.768;2024-03-08T00:24:02;18.27;;;11.90;;
81648;SDS011;71057;51.436;6.768;2024-03-08T00:26:28;16.38;;;11.18;;
81648;SDS011;71057;51.436;6.768;2024-03-08T00:28:55;19.40;;;11.55;;
81648;SDS011;71057;51.436;6.768;2024-03-08T00:31:21;18.55;;;12.05;;
81648;SDS011;71057;51.436;6.768;2024-03-08T00:33:46;17.40;;;11.10;;
81648;SDS011;71057;51.436;6.768;2024-03-08T00:36:11;19.92;;;12.18;;
81648;SDS011;71057;51.436;6.768;2024-03-08T00:38:37;20.37;;;10.83;;
81648;SDS011;71057;51.436;6.768;2024-03-08T00:41:02;18.95;;;12.45;;
81648;SDS011;71057;51.436;6.768;2024-03-08T00:43:28;20.92;;;11.98;;
81648;SDS011;71057;51.436;6.768;2024-03-08T00:45:55;19.83;;;12.27;;
81648;SDS011;71057;51.436;6.768;2024-03-08T00:48:20;18.45;;;11.85;;
81648;SDS011;71057;51.436;6.768;2024-03-08T00:50:46;20.00;;;11.70;;
81648;SDS011;71057;51.436;6.768;2024-03-08T00:53:11;17.58;;;12.27;;
81648;SDS011;71057;51.436;6.768;2024-03-08T00:55:37;20.20;;;11.95;;
81648;SDS011;71057;51.436;6.768;2024-03-08T00:58:03;18.17;;;10.88;;
81648;SDS011;71057;51.436;6.768;2024-03-08T01:00:29;18.10;;;12.23;;
81648;SDS011;71057;51.436;6.768;2024-03-08T01:02:54;20.48;;;12.52;;
81648;SDS011;71057;51.436;6.768;2024-03-08T01:05:19;19.77;;;13.27;;
81648;SDS011;71057;51.436;6.768;2024-03-08T01:07:45;18.77;;;11.48;;
81648;SDS011;71057;51.436;6.768;2024-03-08T01:10:11;21.17;;;12.20;;
81648;SDS011;71057;51.436;6.768;2024-03-08T01:12:37;19.02;;;12.40;;
81648;SDS011;71057;51.436;6.768;2024-03-08T01:15:03;23.88;;;12.02;;
81648;SDS011;71057;51.436;6.768;2024-03-08T01:17:28;18.70;;;11.70;;
81648;SDS011;71057;51.436;6.768;2024-03-08T01:19:54;16.60;;;11.53;;
81648;SDS011;71057;51.436;6.768;2024-03-08T01:22:19;20.10;;;13.77;;
81648;SDS011;71057;51.436;6.768;2024-03-08T01:24:45;20.77;;;12.77;;
81648;SDS011;71057;51.436;6.768;2024-03-08T01:27:10;18.30;;;12.18;;
81648;SDS011;71057;51.436;6.768;2024-03-08T01:29:36;17.67;;;11.57;;
81648;SDS011;71057;51.436;6.768;2024-03-08T01:32:02;20.15;;;12.32;;
81648;SDS011;71057;51.436;6.768;2024-03-08T01:34:28;22.48;;;13.00;;
81648;SDS011;71057;51.436;6.768;2024-03-08T01:36:54;20.05;;;12.18;;
81648;SDS011;71057;51.436;6.768;2024-03-08T01:39:21;22.48;;;13.07;;
81648;SDS011;71057;51.436;6.768;2024-03-08T01:41:47;21.92;;;13.77;;
81648;SDS011;71057;51.436;6.768;2024-03-08T01:44:12;18.25;;;11.93;;
81648;SDS011;71057;51.436;6.768;2024-03-08T01:46:42;22.67;;;12.90;;
81648;SDS011;71057;51.436;6.768;2024-03-08T01:49:09;20.88;;;12.40;;
81648;SDS011;71057;51.436;6.768;2024-03-08T01:51:36;18.55;;;12.30;;
81648;SDS011;71057;51.436;6.768;2024-03-08T01:54:03;21.33;;;13.15;;
81648;SDS011;71057;51.436;6.768;2024-03-08T01:56:29;20.73;;;13.48;;
81648;SDS011;71057;51.436;6.768;2024-03-08T01:58:56;19.38;;;13.90;;
81648;SDS011;71057;51.436;6.768;2024-03-08T02:01:22;21.25;;;14.43;;
81648;SDS011;71057;51.436;6.768;2024-03-08T02:03:49;20.75;;;13.88;;
81648;SDS011;71057;51.436;6.768;2024-03-08T02:06:14;21.13;;;14.77;;
81648;SDS011;71057;51.436;6.768;2024-03-08T02:08:44;23.77;;;13.45;;
81648;SDS011;71057;51.436;6.768;2024-03-08T02:11:09;22.63;;;13.18;;
81648;SDS011;71057;51.436;6.768;2024-03-08T02:13:35;22.10;;;13.02;;
81648;SDS011;71057;51.436;6.768;2024-03-08T02:16:01;20.73;;;12.73;;
81648;SDS011;71057;51.436;6.768;2024-03-08T02:18:27;20.10;;;13.88;;
81648;SDS011;71057;51.436;6.768;2024-03-08T02:20:54;20.45;;;13.48;;
81648;SDS011;71057;51.436;6.768;2024-03-08T02:23:21;21.73;;;13.15;;
81648;SDS011;71057;51.436;6.768;2024-03-08T02:25:47;19.35;;;12.27;;
81648;SDS011;71057;51.436;6.768;2024-03-08T02:28:13;22.42;;;13.05;;
81648;SDS011;71057;51.436;6.768;2024-03-08T02:30:39;20.65;;;13.23;;
81648;SDS011;71057;51.436;6.768;2024-03-08T02:33:05;21.73;;;12.50;;
81648;SDS011;71057;51.436;6.768;2024-03-08T02:35:31;22.08;;;13.02;;
81648;SDS011;71057;51.436;6.768;2024-03-08T02:37:57;23.70;;;13.57;;
81648;SDS011;71057;51.436;6.768;2024-03-08T02:40:23;19.80;;;12.40;;
81648;SDS011;71057;51.436;6.768;2024-03-08T02:42:48;21.33;;;13.70;;
81648;SDS011;71057;51.436;6.768;2024-03-08T02:45:14;21.43;;;13.90;;
81648;SDS011;71057;51.436;6.768;2024-03-08T02:47:39;22.25;;;14.05;;
81648;SDS011;71057;51.436;6.768;2024-03-08T02:50:05;22.13;;;12.63;;
81648;SDS011;71057;51.436;6.768;2024-03-08T02:52:33;21.38;;;12.98;;
81648;SDS011;71057;51.436;6.768;2024-03-08T02:55:04;20.45;;;13.48;;
81648;SDS011;71057;51.436;6.768;2024-03-08T02:57:33;19.23;;;12.85;;
81648;SDS011;71057;51.436;6.768;2024-03-08T02:59:58;23.10;;;14.27;;
81648;SDS011;71057;51.436;6.768;2024-03-08T03:02:24;21.13;;;12.38;;
81648;SDS011;71057;51.436;6.768;2024-03-08T03:04:51;21.60;;;14.73;;
81648;SDS011;71057;51.436;6.768;2024-03-08T03:07:17;23.27;;;14.18;;
81648;SDS011;71057;51.436;6.768;2024-03-08T03:09:42;21.63;;;13.47;;
81648;SDS011;71057;51.436;6.768;2024-03-08T03:12:07;21.43;;;14.07;;
81648;SDS011;71057;51.436;6.768;2024-03-08T03:14:35;24.42;;;15.20;;
81648;SDS011;71057;51.436;6.768;2024-03-08T03:17:03;22.20;;;13.85;;
81648;SDS011;71057;51.436;6.768;2024-03-08T03:19:29;26.25;;;14.05;;
81648;SDS011;71057;51.436;6.768;2024-03-08T03:21:55;25.45;;;14.50;;
81648;SDS011;71057;51.436;6.768;2024-03-08T03:24:20;24.05;;;14.07;;
81648;SDS011;71057;51.436;6.768;2024-03-08T03:26:46;21.73;;;14.18;;
81648;SDS011;71057;51.436;6.768;2024-03-08T03:29:13;24.23;;;15.48;;
81648;SDS011;71057;51.436;6.768;2024-03-08T03:31:40;24.73;;;15.43;;
81648;SDS011;71057;51.436;6.768;2024-03-08T03:34:06;22.17;;;13.50;;
81648;SDS011;71057;51.436;6.768;2024-03-08T03:36:33;23.75;;;14.48;;
81648;SDS011;71057;51.436;6.768;2024-03-08T03:39:00;20.50;;;12.73;;
81648;SDS011;71057;51.436;6.768;2024-03-08T03:41:41;22.55;;;14.68;;
81648;SDS011;71057;51.436;6.768;2024-03-08T03:44:07;23.90;;;13.95;;
81648;SDS011;71057;51.436;6.768;2024-03-08T03:46:33;23.45;;;13.30;;
81648;SDS011;71057;51.436;6.768;2024-03-08T03:48:58;23.52;;;14.27;;
81648;SDS011;71057;51.436;6.768;2024-03-08T03:51:24;21.90;;;13.60;;
81648;SDS011;71057;51.436;6.768;2024-03-08T03:53:49;24.52;;;14.38;;
81648;SDS011;71057;51.436;6.768;2024-03-08T03:56:14;22.85;;;13.68;;
81648;SDS011;71057;51.436;6.768;2024-03-08T03:58:40;24.27;;;14.40;;
81648;SDS011;71057;51.436;6.768;2024-03-08T04:01:05;22.75;;;12.90;;
81648;SDS011;71057;51.436;6.768;2024-03-08T04:03:30;19.23;;;12.70;;
81648;SDS011;71057;51.436;6.768;2024-03-08T04:05:56;22.02;;;13.20;;
81648;SDS011;71057;51.436;6.768;2024-03-08T04:08:21;24.58;;;14.07;;
81648;SDS011;71057;51.436;6.768;2024-03-08T04:10:48;22.13;;;13.13;;
81648;SDS011;71057;51.436;6.768;2024-03-08T04:13:14;24.83;;;14.23;;
81648;SDS011;71057;51.436;6.768;2024-03-08T04:15:40;24.50;;;13.93;;
81648;SDS011;71057;51.436;6.768;2024-03-08T04:18:06;25.98;;;14.68;;
81648;SDS011;71057;51.436;6.768;2024-03-08T04:20:32;24.10;;;14.65;;
81648;SDS011;71057;51.436;6.768;2024-03-08T04:22:57;24.17;;;13.45;;
81648;SDS011;71057;51.436;6.768;2024-03-08T04:25:22;23.05;;;14.15;;
81648;SDS011;71057;51.436;6.768;2024-03-08T04:27:48;27.50;;;14.73;;
81648;SDS011;71057;51.436;6.768;2024-03-08T04:30:14;25.10;;;14.85;;
81648;SDS011;71057;51.436;6.768;2024-03-08T04:32:40;24.73;;;14.45;;
81648;SDS011;71057;51.436;6.768;2024-03-08T04:35:06;25.90;;;14.45;;
81648;SDS011;71057;51.436;6.768;2024-03-08T04:37:33;28.35;;;14.90;;
81648;SDS011;71057;51.436;6.768;2024-03-08T04:39:59;24.75;;;14.27;;
81648;SDS011;71057;51.436;6.768;2024-03-08T04:42:24;27.42;;;15.70;;
81648;SDS011;71057;51.436;6.768;2024-03-08T04:44:51;24.80;;;14.20;;
81648;SDS011;71057;51.436;6.768;2024-03-08T04:47:18;21.02;;;13.50;;
81648;SDS011;71057;51.436;6.768;2024-03-08T04:49:44;26.63;;;14.15;;
81648;SDS011;71057;51.436;6.768;2024-03-08T04:52:09;24.83;;;14.52;;
81648;SDS011;71057;51.436;6.768;2024-03-08T04:54:34;24.37;;;14.47;;
81648;SDS011;71057;51.436;6.768;2024-03-08T04:56:59;26.10;;;14.40;;
81648;SDS011;71057;51.436;6.768;2024-03-08T04:59:25;26.00;;;15.33;;
81648;SDS011;71057;51.436;6.768;2024-03-08T05:01:52;23.52;;;14.32;;
81648;SDS011;71057;51.436;6.768;2024-03-08T05:04:17;28.02;;;15.07;;
81648;SDS011;71057;51.436;6.768;2024-03-08T05:06:42;25.13;;;14.63;;
81648;SDS011;71057;51.436;6.768;2024-03-08T05:09:08;28.30;;;14.67;;
81648;SDS011;71057;51.436;6.768;2024-03-08T05:11:43;29.75;;;15.20;;
81648;SDS011;71057;51.436;6.768;2024-03-08T05:14:09;27.45;;;15.65;;
81648;SDS011;71057;51.436;6.768;2024-03-08T05:16:35;26.88;;;15.23;;
81648;SDS011;71057;51.436;6.768;2024-03-08T05:19:00;27.50;;;15.13;;
81648;SDS011;71057;51.436;6.768;2024-03-08T05:21:26;28.88;;;16.20;;
81648;SDS011;71057;51.436;6.768;2024-03-08T05:23:51;28.43;;;15.47;;
81648;SDS011;71057;51.436;6.768;2024-03-08T05:26:17;29.77;;;14.87;;
81648;SDS011;71057;51.436;6.768;2024-03-08T05:28:42;26.47;;;14.93;;
81648;SDS011;71057;51.436;6.768;2024-03-08T05:31:07;24.63;;;14.43;;
81648;SDS011;71057;51.436;6.768;2024-03-08T05:33:33;25.70;;;15.13;;
81648;SDS011;71057;51.436;6.768;2024-03-08T05:38:27;26.75;;;14.45;;
81648;SDS011;71057;51.436;6.768;2024-03-08T05:40:53;25.63;;;14.23;;
81648;SDS011;71057;51.436;6.768;2024-03-08T05:43:19;29.67;;;16.10;;
81648;SDS011;71057;51.436;6.768;2024-03-08T05:45:45;25.65;;;16.33;;
81648;SDS011;71057;51.436;6.768;2024-03-08T05:50:38;24.40;;;13.70;;
81648;SDS011;71057;51.436;6.768;2024-03-08T05:53:04;27.10;;;14.85;;
81648;SDS011;71057;51.436;6.768;2024-03-08T05:55:32;26.83;;;14.88;;
81648;SDS011;71057;51.436;6.768;2024-03-08T05:58:01;25.73;;;14.38;;
81648;SDS011;71057;51.436;6.768;2024-03-08T06:00:26;28.67;;;16.05;;
81648;SDS011;71057;51.436;6.768;2024-03-08T06:02:52;26.25;;;15.43;;
81648;SDS011;71057;51.436;6.768;2024-03-08T06:05:17;27.73;;;15.45;;
81648;SDS011;71057;51.436;6.768;2024-03-08T06:07:42;28.10;;;15.40;;
81648;SDS011;71057;51.436;6.768;2024-03-08T06:10:08;25.88;;;14.20;;
81648;SDS011;71057;51.436;6.768;2024-03-08T06:12:35;29.05;;;15.68;;
81648;SDS011;71057;51.436;6.768;2024-03-08T06:15:05;29.25;;;16.17;;
81648;SDS011;71057;51.436;6.768;2024-03-08T06:17:31;40.65;;;22.25;;
81648;SDS011;71057;51.436;6.768;2024-03-08T06:19:56;30.00;;;15.77;;
81648;SDS011;71057;51.436;6.768;2024-03-08T06:22:22;28.27;;;15.87;;
81648;SDS011;71057;51.436;6.768;2024-03-08T06:24:47;28.48;;;15.88;;
81648;SDS011;71057;51.436;6.768;2024-03-08T06:27:12;29.73;;;16.13;;
81648;SDS011;71057;51.436;6.768;2024-03-08T06:29:38;28.27;;;14.52;;
81648;SDS011;71057;51.436;6.768;2024-03-08T06:32:04;26.25;;;14.88;;
81648;SDS011;71057;51.436;6.768;2024-03-08T06:34:32;25.00;;;15.32;;
81648;SDS011;71057;51.436;6.768;2024-03-08T06:36:58;29.42;;;16.00;;
81648;SDS011;71057;51.436;6.768;2024-03-08T06:39:25;28.75;;;14.85;;
81648;SDS011;71057;51.436;6.768;2024-03-08T06:41:51;26.42;;;14.48;;
81648;SDS011;71057;51.436;6.768;2024-03-08T06:44:16;30.33;;;15.30;;
81648;SDS011;71057;51.436;6.768;2024-03-08T06:46:41;29.90;;;14.93;;
81648;SDS011;71057;51.436;6.768;2024-03-08T06:49:07;27.58;;;16.13;;
81648;SDS011;71057;51.436;6.768;2024-03-08T06:51:34;27.25;;;15.75;;
81648;SDS011;71057;51.436;6.768;2024-03-08T06:53:59;26.60;;;14.93;;
81648;SDS011;71057;51.436;6.768;2024-03-08T06:56:25;28.80;;;16.65;;
81648;SDS011;71057;51.436;6.768;2024-03-08T06:58:50;24.10;;;15.90;;
81648;SDS011;71057;51.436;6.768;2024-03-08T07:01:16;29.05;;;16.38;;
81648;SDS011;71057;51.436;6.768;2024-03-08T07:03:42;28.30;;;16.05;;
81648;SDS011;71057;51.436;6.768;2024-03-08T07:06:10;27.90;;;16.08;;
81648;SDS011;71057;51.436;6.768;2024-03-08T07:08:36;31.48;;;16.02;;
81648;SDS011;71057;51.436;6.768;2024-03-08T07:11:01;28.23;;;15.27;;
81648;SDS011;71057;51.436;6.768;2024-03-08T07:13:27;30.02;;;16.20;;
81648;SDS011;71057;51.436;6.768;2024-03-08T07:15:53;26.45;;;15.10;;
81648;SDS011;71057;51.436;6.768;2024-03-08T07:18:18;27.33;;;15.38;;
81648;SDS011;71057;51.436;6.768;2024-03-08T07:20:44;26.60;;;15.25;;
81648;SDS011;71057;51.436;6.768;2024-03-08T07:23:09;27.75;;;16.13;;
81648;SDS011;71057;51.436;6.768;2024-03-08T07:25:35;24.88;;;15.35;;
81648;SDS011;71057;51.436;6.768;2024-03-08T07:28:01;25.70;;;15.30;;
81648;SDS011;71057;51.436;6.768;2024-03-08T07:30:26;26.70;;;14.90;;
81648;SDS011;71057;51.436;6.768;2024-03-08T07:33:10;25.80;;;14.95;;
81648;SDS011;71057;51.436;6.768;2024-03-08T07:35:39;26.95;;;15.60;;
81648;SDS011;71057;51.436;6.768;2024-03-08T07:38:05;26.92;;;15.15;;
81648;SDS011;71057;51.436;6.768;2024-03-08T07:40:35;30.38;;;16.15;;
81648;SDS011;71057;51.436;6.768;2024-03-08T07:43:05;27.75;;;15.50;;
81648;SDS011;71057;51.436;6.768;2024-03-08T07:45:33;27.48;;;15.52;;
81648;SDS011;71057;51.436;6.768;2024-03-08T07:47:59;27.05;;;16.20;;
81648;SDS011;71057;51.436;6.768;2024-03-08T07:50:24;27.30;;;14.80;;
81648;SDS011;71057;51.436;6.768;2024-03-08T07:52:50;26.45;;;15.35;;
81648;SDS011;71057;51.436;6.768;2024-03-08T07:55:16;27.13;;;15.30;;
81648;SDS011;71057;51.436;6.768;2024-03-08T07:57:41;26.70;;;15.20;;
81648;SDS011;71057;51.436;6.768;2024-03-08T08:00:08;26.15;;;15.77;;
81648;SDS011;71057;51.436;6.768;2024-03-08T08:02:34;26.25;;;15.75;;
81648;SDS011;71057;51.436;6.768;2024-03-08T08:05:02;26.23;;;15.80;;
81648;SDS011;71057;51.436;6.768;2024-03-08T08:07:28;30.85;;;16.80;;
81648;SDS011;71057;51.436;6.768;2024-03-08T08:09:54;29.27;;;16.35;;
81648;SDS011;71057;51.436;6.768;2024-03-08T08:12:19;28.80;;;14.27;;
81648;SDS011;71057;51.436;6.768;2024-03-08T08:14:44;26.83;;;14.73;;
81648;SDS011;71057;51.436;6.768;2024-03-08T08:17:11;25.90;;;14.15;;
81648;SDS011;71057;51.436;6.768;2024-03-08T08:19:37;30.73;;;14.75;;
81648;SDS011;71057;51.436;6.768;2024-03-08T08:22:03;23.80;;;13.70;;
81648;SDS011;71057;51.436;6.768;2024-03-08T08:24:28;23.67;;;15.00;;
81648;SDS011;71057;51.436;6.768;2024-03-08T08:26:54;29.33;;;14.90;;
81648;SDS011;71057;51.436;6.768;2024-03-08T08:29:19;26.20;;;15.27;;
81648;SDS011;71057;51.436;6.768;2024-03-08T08:31:45;25.70;;;13.98;;
81648;SDS011;71057;51.436;6.768;2024-03-08T08:34:11;30.73;;;15.73;;
81648;SDS011;71057;51.436;6.768;2024-03-08T08:36:37;23.95;;;14.63;;
81648;SDS011;71057;51.436;6.768;2024-03-08T08:39:03;24.90;;;15.70;;
81648;SDS011;71057;51.436;6.768;2024-03-08T08:41:30;28.58;;;14.98;;
81648;SDS011;71057;51.436;6.768;2024-03-08T08:43:56;28.50;;;15.80;;
81648;SDS011;71057;51.436;6.768;2024-03-08T08:46:22;25.70;;;14.23;;
81648;SDS011;71057;51.436;6.768;2024-03-08T08:48:47;25.17;;;14.52;;
81648;SDS011;71057;51.436;6.768;2024-03-08T08:51:12;28.63;;;16.08;;
81648;SDS011;71057;51.436;6.768;2024-03-08T08:53:38;24.02;;;14.93;;
81648;SDS011;71057;51.436;6.768;2024-03-08T08:56:11;23.00;;;14.63;;
81648;SDS011;71057;51.436;6.768;2024-03-08T08:58:41;20.88;;;13.65;;
81648;SDS011;71057;51.436;6.768;2024-03-08T09:01:07;23.83;;;14.30;;
81648;SDS011;71057;51.436;6.768;2024-03-08T09:03:34;25.02;;;12.95;;
81648;SDS011;71057;51.436;6.768;2024-03-08T09:06:01;20.45;;;12.02;;
81648;SDS011;71057;51.436;6.768;2024-03-08T09:08:27;20.33;;;12.48;;
81648;SDS011;71057;51.436;6.768;2024-03-08T09:10:53;21.17;;;14.32;;
81648;SDS011;71057;51.436;6.768;2024-03-08T09:13:19;21.27;;;12.63;;
81648;SDS011;71057;51.436;6.768;2024-03-08T09:15:44;22.57;;;13.77;;
81648;SDS011;71057;51.436;6.768;2024-03-08T09:18:10;23.73;;;12.65;;
81648;SDS011;71057;51.436;6.768;2024-03-08T09:20:35;21.27;;;13.10;;
81648;SDS011;71057;51.436;6.768;2024-03-08T09:23:01;23.35;;;13.98;;
81648;SDS011;71057;51.436;6.768;2024-03-08T09:25:27;21.95;;;13.00;;
81648;SDS011;71057;51.436;6.768;2024-03-08T09:27:53;25.05;;;13.18;;
81648;SDS011;71057;51.436;6.768;2024-03-08T09:30:19;19.90;;;12.13;;
81648;SDS011;71057;51.436;6.768;2024-03-08T09:32:46;21.88;;;12.90;;
81648;SDS011;71057;51.436;6.768;2024-03-08T09:35:11;22.27;;;12.38;;
81648;SDS011;71057;51.436;6.768;2024-03-08T09:37:37;22.73;;;13.23;;
81648;SDS011;71057;51.436;6.768;2024-03-08T09:40:02;24.13;;;13.48;;
81648;SDS011;71057;51.436;6.768;2024-03-08T09:42:34;20.20;;;12.38;;
81648;SDS011;71057;51.436;6.768;2024-03-08T09:45:09;23.55;;;13.73;;
81648;SDS011;71057;51.436;6.768;2024-03-08T09:47:35;19.65;;;13.68;;
81648;SDS011;71057;51.436;6.768;2024-03-08T09:50:05;21.35;;;13.13;;
81648;SDS011;71057;51.436;6.768;2024-03-08T09:52:34;22.17;;;13.05;;
81648;SDS011;71057;51.436;6.768;2024-03-08T09:55:00;22.58;;;14.20;;
81648;SDS011;71057;51.436;6.768;2024-03-08T09:57:26;23.08;;;13.48;;
81648;SDS011;71057;51.436;6.768;2024-03-08T09:59:52;22.60;;;12.55;;
81648;SDS011;71057;51.436;6.768;2024-03-08T10:02:17;21.63;;;13.25;;
81648;SDS011;71057;51.436;6.768;2024-03-08T10:04:43;21.75;;;13.13;;
81648;SDS011;71057;51.436;6.768;2024-03-08T10:07:11;22.33;;;13.55;;
81648;SDS011;71057;51.436;6.768;2024-03-08T10:09:37;21.17;;;13.65;;
81648;SDS011;71057;51.436;6.768;2024-03-08T10:12:04;25.23;;;13.02;;
81648;SDS011;71057;51.436;6.768;2024-03-08T10:14:30;21.20;;;11.77;;
81648;SDS011;71057;51.436;6.768;2024-03-08T10:16:56;20.95;;;12.98;;
81648;SDS011;71057;51.436;6.768;2024-03-08T10:19:24;18.25;;;11.85;;
81648;SDS011;71057;51.436;6.768;2024-03-08T10:21:50;19.77;;;12.70;;
81648;SDS011;71057;51.436;6.768;2024-03-08T10:24:21;19.38;;;12.55;;
81648;SDS011;71057;51.436;6.768;2024-03-08T10:26:48;18.35;;;12.10;;
81648;SDS011;71057;51.436;6.768;2024-03-08T10:29:16;16.35;;;11.18;;
81648;SDS011;71057;51.436;6.768;2024-03-08T10:31:43;21.23;;;12.95;;
81648;SDS011;71057;51.436;6.768;2024-03-08T10:34:11;19.70;;;11.00;;
81648;SDS011;71057;51.436;6.768;2024-03-08T10:36:36;20.38;;;12.52;;
81648;SDS011;71057;51.436;6.768;2024-03-08T10:39:06;24.83;;;12.43;;
81648;SDS011;71057;51.436;6.768;2024-03-08T10:41:45;15.70;;;10.50;;
81648;SDS011;71057;51.436;6.768;2024-03-08T10:47:01;16.05;;;10.93;;
81648;SDS011;71057;51.436;6.768;2024-03-08T10:52:16;17.40;;;11.63;;
81648;SDS011;71057;51.436;6.768;2024-03-08T10:54:42;18.38;;;10.57;;
81648;SDS011;71057;51.436;6.768;2024-03-08T10:57:08;17.60;;;11.40;;
81648;SDS011;71057;51.436;6.768;2024-03-08T10:59:37;16.90;;;10.60;;
81648;SDS011;71057;51.436;6.768;2024-03-08T11:02:04;16.55;;;11.25;;
81648;SDS011;71057;51.436;6.768;2024-03-08T11:04:30;17.45;;;11.63;;
81648;SDS011;71057;51.436;6.768;2024-03-08T11:07:01;17.67;;;9.75;;
81648;SDS011;71057;51.436;6.768;2024-03-08T11:09:30;16.23;;;10.43;;
81648;SDS011;71057;51.436;6.768;2024-03-08T11:12:18;17.40;;;10.48;;
81648;SDS011;71057;51.436;6.768;2024-03-08T11:14:54;15.55;;;11.20;;
81648;SDS011;71057;51.436;6.768;2024-03-08T11:17:21;16.42;;;10.38;;
81648;SDS011;71057;51.436;6.768;2024-03-08T11:19:52;15.40;;;10.10;;
81648;SDS011;71057;51.436;6.768;2024-03-08T11:22:28;16.23;;;11.25;;
81648;SDS011;71057;51.436;6.768;2024-03-08T11:25:01;16.05;;;11.00;;
81648;SDS011;71057;51.436;6.768;2024-03-08T11:27:29;17.35;;;10.68;;
81648;SDS011;71057;51.436;6.768;2024-03-08T11:29:59;14.98;;;11.20;;
81648;SDS011;71057;51.436;6.768;2024-03-08T11:32:34;15.40;;;9.50;;
81648;SDS011;71057;51.436;6.768;2024-03-08T11:35:01;14.80;;;9.30;;
81648;SDS011;71057;51.436;6.768;2024-03-08T11:37:30;17.38;;;9.93;;
81648;SDS011;71057;51.436;6.768;2024-03-08T11:39:59;18.60;;;11.93;;
81648;SDS011;71057;51.436;6.768;2024-03-08T11:42:26;19.52;;;11.57;;
81648;SDS011;71057;51.436;6.768;2024-03-08T11:44:52;20.23;;;13.32;;
81648;SDS011;71057;51.436;6.768;2024-03-08T11:47:18;19.45;;;13.15;;
81648;SDS011;71057;51.436;6.768;2024-03-08T11:49:44;20.65;;;12.45;;
81648;SDS011;71057;51.436;6.768;2024-03-08T11:52:12;20.65;;;13.00;;
81648;SDS011;71057;51.436;6.768;2024-03-08T11:54:39;20.23;;;13.57;;
81648;SDS011;71057;51.436;6.768;2024-03-08T11:57:05;22.73;;;14.30;;
81648;SDS011;71057;51.436;6.768;2024-03-08T11:59:30;19.77;;;15.00;;
81648;SDS011;71057;51.436;6.768;2024-03-08T12:04:32;22.10;;;14.20;;
81648;SDS011;71057;51.436;6.768;2024-03-08T12:07:01;20.73;;;12.45;;
81648;SDS011;71057;51.436;6.768;2024-03-08T12:09:28;20.40;;;13.88;;
81648;SDS011;71057;51.436;6.768;2024-03-08T12:11:53;20.27;;;13.13;;
81648;SDS011;71057;51.436;6.768;2024-03-08T12:14:19;21.75;;;15.18;;
81648;SDS011;71057;51.436;6.768;2024-03-08T12:16:45;24.33;;;14.65;;
81648;SDS011;71057;51.436;6.768;2024-03-08T12:19:10;19.50;;;12.93;;
81648;SDS011;71057;51.436;6.768;2024-03-08T12:21:37;22.00;;;13.60;;
81648;SDS011;71057;51.436;6.768;2024-03-08T12:24:03;20.15;;;13.18;;
81648;SDS011;71057;51.436;6.768;2024-03-08T12:26:36;19.42;;;12.88;;
81648;SDS011;71057;51.436;6.768;2024-03-08T12:29:15;20.10;;;12.60;;
81648;SDS011;71057;51.436;6.768;2024-03-08T12:31:47;20.55;;;12.98;;
81648;SDS011;71057;51.436;6.768;2024-03-08T12:34:17;20.50;;;12.80;;
81648;SDS011;71057;51.436;6.768;2024-03-08T12:36:46;21.20;;;12.98;;
81648;SDS011;71057;51.436;6.768;2024-03-08T12:39:14;20.58;;;13.75;;
81648;SDS011;71057;51.436;6.768;2024-03-08T12:41:42;22.38;;;12.98;;
81648;SDS011;71057;51.436;6.768;2024-03-08T12:44:08;17.73;;;12.93;;
81648;SDS011;71057;51.436;6.768;2024-03-08T12:49:01;16.80;;;11.10;;
81648;SDS011;71057;51.436;6.768;2024-03-08T12:51:29;16.83;;;12.20;;
81648;SDS011;71057;51.436;6.768;2024-03-08T12:53:54;19.23;;;11.93;;
81648;SDS011;71057;51.436;6.768;2024-03-08T12:56:30;19.38;;;11.57;;
81648;SDS011;71057;51.436;6.768;2024-03-08T12:58:58;17.65;;;11.98;;
81648;SDS011;71057;51.436;6.768;2024-03-08T13:01:23;19.83;;;13.00;;
81648;SDS011;71057;51.436;6.768;2024-03-08T13:03:49;18.30;;;12.90;;
81648;SDS011;71057;51.436;6.768;2024-03-08T13:06:17;15.82;;;11.40;;
81648;SDS011;71057;51.436;6.768;2024-03-08T13:08:44;15.95;;;11.75;;
81648;SDS011;71057;51.436;6.768;2024-03-08T13:11:10;17.80;;;11.83;;
81648;SDS011;71057;51.436;6.768;2024-03-08T13:13:42;18.23;;;11.15;;
81648;SDS011;71057;51.436;6.768;2024-03-08T13:16:08;15.43;;;9.70;;
81648;SDS011;71057;51.436;6.768;2024-03-08T13:18:36;14.55;;;8.60;;
81648;SDS011;71057;51.436;6.768;2024-03-08T13:21:02;10.30;;;7.00;;
81648;SDS011;71057;51.436;6.768;2024-03-08T13:23:32;9.60;;;6.43;;
81648;SDS011;71057;51.436;6.768;2024-03-08T13:26:11;9.05;;;7.03;;
81648;SDS011;71057;51.436;6.768;2024-03-08T13:28:40;9.02;;;6.60;;
81648;SDS011;71057;51.436;6.768;2024-03-08T13:31:10;8.10;;;5.90;;
81648;SDS011;71057;51.436;6.768;2024-03-08T13:33:35;7.60;;;6.28;;
81648;SDS011;71057;51.436;6.768;2024-03-08T13:36:05;8.35;;;5.70;;
81648;SDS011;71057;51.436;6.768;2024-03-08T13:38:34;8.52;;;5.68;;
81648;SDS011;71057;51.436;6.768;2024-03-08T13:41:01;6.93;;;5.25;;
81648;SDS011;71057;51.436;6.768;2024-03-08T13:43:27;7.68;;;5.35;;
81648;SDS011;71057;51.436;6.768;2024-03-08T13:45:54;8.35;;;6.13;;
81648;SDS011;71057;51.436;6.768;2024-03-08T13:48:20;8.18;;;5.20;;
81648;SDS011;71057;51.436;6.768;2024-03-08T13:50:47;11.35;;;5.90;;
81648;SDS011;71057;51.436;6.768;2024-03-08T13:53:13;7.43;;;5.30;;
81648;SDS011;71057;51.436;6.768;2024-03-08T13:55:40;8.35;;;5.10;;
81648;SDS011;71057;51.436;6.768;2024-03-08T13:58:05;6.93;;;4.80;;
81648;SDS011;71057;51.436;6.768;2024-03-08T14:00:39;7.68;;;4.75;;
81648;SDS011;71057;51.436;6.768;2024-03-08T14:03:06;7.68;;;5.25;;
81648;SDS011;71057;51.436;6.768;2024-03-08T14:05:32;7.82;;;5.40;;
81648;SDS011;71057;51.436;6.768;2024-03-08T14:08:01;6.60;;;5.18;;
81648;SDS011;71057;51.436;6.768;2024-03-08T14:10:30;7.32;;;5.32;;
81648;SDS011;71057;51.436;6.768;2024-03-08T14:12:56;6.22;;;4.97;;
81648;SDS011;71057;51.436;6.768;2024-03-08T14:15:22;6.93;;;5.20;;
81648;SDS011;71057;51.436;6.768;2024-03-08T14:17:54;8.57;;;5.78;;
81648;SDS011;71057;51.436;6.768;2024-03-08T14:20:20;8.55;;;5.80;;
81648;SDS011;71057;51.436;6.768;2024-03-08T14:22:50;7.68;;;5.30;;
81648;SDS011;71057;51.436;6.768;2024-03-08T14:25:21;6.85;;;5.03;;
81648;SDS011;71057;51.436;6.768;2024-03-08T14:27:49;7.35;;;5.30;;
81648;SDS011;71057;51.436;6.768;2024-03-08T14:30:15;7.20;;;4.68;;
81648;SDS011;71057;51.436;6.768;2024-03-08T14:32:57;7.70;;;5.55;;
81648;SDS011;71057;51.436;6.768;2024-03-08T14:35:24;8.23;;;5.82;;
81648;SDS011;71057;51.436;6.768;2024-03-08T14:37:50;7.00;;;5.35;;